createdAt,value
2019-03-08T00:00:16.220Z,9.33
2019-03-08T00:02:44.800Z,9.80
2019-03-08T00:05:11.485Z,8.80
2019-03-08T00:07:38.188Z,9.98
2019-03-08T00:10:05.199Z,9.93
2019-03-08T00:12:31.947Z,9.30
2019-03-08T00:14:58.548Z,10.10
2019-03-08T00:17:25.324Z,9.18
2019-03-08T00:19:52.019Z,9.35
2019-03-08T00:22:18.703Z,9.53
2019-03-08T00:24:46.627Z,9.50
2019-03-08T00:27:13.316Z,8.73
2019-03-08T00:29:40.012Z,9.78
2019-03-08T00:32:07.779Z,9.20
2019-03-08T00:34:34.558Z,9.88
2019-03-08T00:37:01.161Z,9.83
2019-03-08T00:39:27.847Z,8.95
2019-03-08T00:41:54.733Z,9.90
2019-03-08T00:44:21.435Z,9.20
2019-03-08T00:46:48.055Z,8.58
2019-03-08T00:49:14.823Z,9.05
2019-03-08T00:51:41.417Z,9.18
2019-03-08T00:54:09.065Z,8.60
2019-03-08T00:56:35.815Z,9.38
2019-03-08T00:59:02.721Z,9.40
2019-03-08T01:01:29.427Z,8.73
2019-03-08T01:03:56.101Z,8.75
2019-03-08T01:06:22.823Z,8.25
2019-03-08T01:08:49.525Z,8.33
2019-03-08T01:11:16.225Z,8.73
2019-03-08T01:13:42.818Z,9.20
2019-03-08T01:16:09.798Z,8.45
2019-03-08T01:18:37.496Z,8.68
2019-03-08T01:21:04.342Z,9.13
2019-03-08T01:23:32.031Z,9.05
2019-03-08T01:25:58.734Z,8.43
2019-03-08T01:28:25.533Z,8.85
2019-03-08T01:30:52.182Z,8.30
2019-03-08T01:33:19.277Z,9.60
2019-03-08T01:35:46.171Z,7.50
2019-03-08T01:38:12.768Z,8.48
2019-03-08T01:40:39.454Z,8.48
2019-03-08T01:43:06.044Z,8.10
2019-03-08T01:45:32.644Z,9.48
2019-03-08T01:47:59.347Z,7.87
2019-03-08T01:50:26.263Z,9.13
2019-03-08T01:52:52.969Z,9.03
2019-03-08T01:55:19.732Z,8.38
2019-03-08T01:57:46.324Z,8.60
2019-03-08T02:00:15.394Z,8.10
2019-03-08T02:02:42.097Z,9.50
2019-03-08T02:05:10.038Z,8.58
2019-03-08T02:07:37.747Z,8.40
2019-03-08T02:10:10.153Z,8.48
2019-03-08T02:12:36.774Z,8.35
2019-03-08T02:15:05.861Z,8.85
2019-03-08T02:17:32.555Z,8.88
2019-03-08T02:19:59.245Z,10.28
2019-03-08T02:22:26.140Z,8.63
2019-03-08T02:24:52.847Z,7.97
2019-03-08T02:27:19.508Z,8.25
2019-03-08T02:29:46.157Z,8.43
2019-03-08T02:32:12.849Z,8.05
2019-03-08T02:34:39.666Z,7.08
2019-03-08T02:37:06.366Z,8.10
2019-03-08T02:39:33.356Z,8.08
2019-03-08T02:41:59.999Z,8.63
2019-03-08T02:44:26.645Z,8.48
2019-03-08T02:46:53.354Z,8.50
2019-03-08T02:49:19.971Z,8.70
2019-03-08T02:51:46.632Z,7.78
2019-03-08T02:54:13.325Z,8.60
2019-03-08T02:56:41.064Z,8.15
2019-03-08T02:59:07.782Z,8.05
2019-03-08T03:01:34.533Z,7.70
2019-03-08T03:04:01.123Z,7.28
2019-03-08T03:06:27.769Z,8.48
2019-03-08T03:08:54.502Z,7.60
2019-03-08T03:11:21.090Z,7.85
2019-03-08T03:13:47.879Z,8.08
2019-03-08T03:16:14.545Z,7.50
2019-03-08T03:18:41.145Z,7.60
2019-03-08T03:21:07.745Z,9.00
2019-03-08T03:23:34.457Z,8.35
2019-03-08T03:26:01.087Z,8.05
2019-03-08T03:28:27.703Z,7.45
2019-03-08T03:30:54.808Z,8.00
2019-03-08T03:33:21.463Z,8.35
2019-03-08T03:35:48.155Z,8.35
2019-03-08T03:38:14.841Z,8.20
2019-03-08T03:40:41.502Z,7.50
2019-03-08T03:43:08.119Z,7.15
2019-03-08T03:45:34.844Z,7.10
2019-03-08T03:48:01.652Z,7.45
2019-03-08T03:50:28.308Z,8.03
2019-03-08T03:52:54.998Z,8.58
2019-03-08T03:55:21.644Z,8.08
2019-03-08T03:57:48.892Z,8.45
2019-03-08T04:00:18.404Z,8.58
2019-03-08T04:02:45.013Z,8.23
2019-03-08T04:05:11.970Z,8.15
2019-03-08T04:07:38.644Z,7.00
2019-03-08T04:10:08.679Z,7.85
2019-03-08T04:12:36.393Z,7.47
2019-03-08T04:15:06.699Z,7.33
2019-03-08T04:17:33.502Z,7.55
2019-03-08T04:20:00.511Z,7.70
2019-03-08T04:22:27.229Z,7.70
2019-03-08T04:24:53.857Z,7.83
2019-03-08T04:27:20.539Z,7.08
2019-03-08T04:29:47.200Z,7.40
2019-03-08T04:32:13.889Z,7.08
2019-03-08T04:34:40.656Z,7.78
2019-03-08T04:37:07.364Z,8.00
2019-03-08T04:39:33.971Z,7.83
2019-03-08T04:42:00.627Z,7.92
2019-03-08T04:44:27.350Z,7.95
2019-03-08T04:46:53.944Z,8.88
2019-03-08T04:49:20.544Z,7.37
2019-03-08T04:51:47.210Z,7.42
2019-03-08T04:54:13.808Z,7.75
2019-03-08T04:56:40.600Z,6.75
2019-03-08T04:59:07.353Z,6.92
2019-03-08T05:01:34.010Z,7.25
2019-03-08T05:04:00.795Z,7.87
2019-03-08T05:06:27.633Z,8.55
2019-03-08T05:08:54.434Z,6.97
2019-03-08T05:11:21.143Z,7.00
2019-03-08T05:13:48.063Z,8.93
2019-03-08T05:16:14.785Z,6.95
2019-03-08T05:18:41.412Z,6.08
2019-03-08T05:21:08.106Z,7.12
2019-03-08T05:23:34.700Z,7.42
2019-03-08T05:26:01.377Z,6.67
2019-03-08T05:28:28.080Z,7.08
2019-03-08T05:30:55.125Z,6.70
2019-03-08T05:33:21.771Z,6.95
2019-03-08T05:35:48.523Z,6.28
2019-03-08T05:38:15.129Z,5.53
2019-03-08T05:40:41.816Z,6.25
2019-03-08T05:43:08.479Z,5.62
2019-03-08T05:45:36.127Z,5.47
2019-03-08T05:48:02.838Z,5.78
2019-03-08T05:50:29.553Z,6.25
2019-03-08T05:52:56.359Z,5.78
2019-03-08T05:55:23.061Z,6.58
2019-03-08T05:57:49.779Z,6.47
2019-03-08T06:00:18.387Z,11.18
2019-03-08T06:02:45.109Z,7.28
2019-03-08T06:05:11.854Z,7.28
2019-03-08T06:07:38.624Z,7.85
2019-03-08T06:10:28.535Z,7.40
2019-03-08T06:12:55.990Z,7.72
2019-03-08T06:15:22.655Z,8.10
2019-03-08T06:17:49.252Z,7.55
2019-03-08T06:20:16.040Z,7.78
2019-03-08T06:22:42.741Z,7.30
2019-03-08T06:25:09.428Z,7.78
2019-03-08T06:27:36.116Z,7.15
2019-03-08T06:30:04.951Z,6.72
2019-03-08T06:32:31.551Z,6.95
2019-03-08T06:34:58.231Z,6.30
2019-03-08T06:37:25.324Z,7.28
2019-03-08T06:39:52.013Z,6.62
2019-03-08T06:42:18.739Z,6.25
2019-03-08T06:44:45.434Z,6.10
2019-03-08T06:47:12.052Z,6.00
2019-03-08T06:49:38.692Z,5.97
2019-03-08T06:52:05.404Z,6.00
2019-03-08T06:54:32.027Z,5.85
2019-03-08T06:56:58.637Z,6.60
2019-03-08T06:59:27.142Z,4.75
2019-03-08T07:01:53.832Z,5.03
2019-03-08T07:04:20.459Z,5.10
2019-03-08T07:06:47.319Z,5.35
2019-03-08T07:09:13.948Z,4.58
2019-03-08T07:11:40.605Z,4.70
2019-03-08T07:14:07.584Z,3.80
2019-03-08T07:16:34.279Z,4.05
2019-03-08T07:19:00.976Z,3.87
2019-03-08T07:21:32.328Z,3.83
2019-03-08T07:24:03.698Z,3.65
2019-03-08T07:26:47.353Z,2.98
2019-03-08T07:29:18.799Z,3.37
2019-03-08T07:31:59.037Z,2.70
2019-03-08T07:34:36.427Z,2.47
2019-03-08T07:37:07.452Z,3.12
2019-03-08T07:39:38.928Z,2.60
2019-03-08T07:42:09.899Z,2.77
2019-03-08T07:44:55.163Z,2.40
2019-03-08T07:47:29.684Z,3.02
2019-03-08T07:49:58.222Z,2.87
2019-03-08T07:52:29.450Z,2.65
2019-03-08T07:54:58.035Z,2.67
2019-03-08T07:57:38.521Z,2.40
2019-03-08T08:00:29.706Z,2.30
2019-03-08T08:03:04.387Z,2.25
2019-03-08T08:05:33.855Z,3.10
2019-03-08T08:08:18.609Z,2.72
2019-03-08T08:10:47.104Z,2.05
2019-03-08T08:13:15.729Z,1.95
2019-03-08T08:15:45.494Z,2.47
2019-03-08T08:18:16.647Z,1.82
2019-03-08T08:20:54.340Z,2.30
2019-03-08T08:23:22.766Z,1.65
2019-03-08T08:26:03.448Z,2.17
2019-03-08T08:28:32.017Z,1.90
2019-03-08T08:31:06.473Z,1.70
2019-03-08T08:33:50.116Z,1.75
2019-03-08T08:36:18.518Z,1.82
2019-03-08T08:38:47.004Z,1.92
2019-03-08T08:41:24.807Z,2.00
2019-03-08T08:44:08.637Z,2.60
2019-03-08T08:46:46.446Z,3.12
2019-03-08T08:49:27.314Z,2.50
2019-03-08T08:52:12.870Z,2.50
2019-03-08T08:54:44.640Z,1.87
2019-03-08T08:57:16.903Z,2.75
2019-03-08T08:59:45.628Z,2.50
2019-03-08T09:02:29.190Z,3.52
2019-03-08T09:05:01.292Z,1.98
2019-03-08T09:07:31.450Z,1.80
2019-03-08T09:09:59.870Z,2.15
2019-03-08T09:12:28.359Z,2.52
2019-03-08T09:14:59.926Z,2.50
2019-03-08T09:17:28.439Z,1.87
2019-03-08T09:19:56.982Z,2.27
2019-03-08T09:22:37.815Z,2.55
2019-03-08T09:25:08.225Z,2.12
2019-03-08T09:27:36.714Z,2.25
2019-03-08T09:30:14.519Z,2.22
2019-03-08T09:32:58.953Z,2.37
2019-03-08T09:35:31.847Z,2.05
2019-03-08T09:38:03.379Z,2.27
2019-03-08T09:40:37.827Z,2.42
2019-03-08T09:43:15.258Z,2.10
2019-03-08T09:45:52.638Z,2.55
2019-03-08T09:48:21.336Z,2.40
2019-03-08T09:50:49.847Z,2.65
2019-03-08T09:53:18.349Z,2.35
2019-03-08T09:55:46.773Z,1.85
2019-03-08T09:58:17.760Z,2.12
2019-03-08T10:01:04.392Z,2.98
2019-03-08T10:03:32.954Z,2.00
2019-03-08T10:06:05.327Z,2.17
2019-03-08T10:08:37.639Z,2.62
2019-03-08T10:11:15.288Z,2.58
2019-03-08T10:13:43.779Z,2.70
2019-03-08T10:16:29.056Z,2.27
2019-03-08T10:19:09.778Z,2.55
2019-03-08T10:21:41.055Z,2.08
2019-03-08T10:24:12.289Z,2.22
2019-03-08T10:26:40.703Z,2.47
2019-03-08T10:29:09.207Z,2.58
2019-03-08T10:31:46.797Z,2.30
2019-03-08T10:34:27.725Z,2.20
2019-03-08T10:36:59.124Z,2.05
2019-03-08T10:39:27.632Z,1.98
2019-03-08T10:42:13.076Z,2.42
2019-03-08T10:44:50.750Z,2.47
2019-03-08T10:47:25.581Z,2.30
2019-03-08T10:49:55.530Z,2.15
2019-03-08T10:52:30.090Z,1.75
2019-03-08T10:55:07.658Z,2.22
2019-03-08T10:57:38.978Z,2.00
2019-03-08T11:00:26.384Z,2.37
2019-03-08T11:03:12.888Z,2.10
2019-03-08T11:05:44.185Z,2.33
2019-03-08T11:08:12.825Z,2.05
2019-03-08T11:11:06.161Z,2.55
2019-03-08T11:13:45.323Z,2.00
2019-03-08T11:16:16.799Z,2.00
2019-03-08T11:19:08.427Z,1.85
2019-03-08T11:21:34.971Z,2.50
2019-03-08T11:24:09.593Z,1.67
2019-03-08T11:26:42.334Z,1.67
2019-03-08T11:29:16.751Z,1.40
2019-03-08T11:31:48.307Z,1.70
2019-03-08T11:34:19.945Z,2.08
2019-03-08T11:36:48.438Z,1.92
2019-03-08T11:39:18.381Z,1.92
2019-03-08T11:41:52.547Z,1.82
2019-03-08T11:44:38.042Z,1.62
2019-03-08T11:47:06.532Z,1.50
2019-03-08T11:49:43.812Z,1.77
2019-03-08T11:52:46.069Z,1.77
2019-03-08T11:55:22.390Z,1.42
2019-03-08T11:57:50.899Z,1.62
2019-03-08T12:00:19.304Z,1.90
2019-03-08T12:02:47.882Z,1.70
2019-03-08T12:05:16.484Z,1.30
2019-03-08T12:07:54.386Z,1.60
2019-03-08T12:10:28.918Z,2.02
2019-03-08T12:12:57.442Z,1.30
2019-03-08T12:15:28.601Z,1.50
2019-03-08T12:18:09.519Z,1.50
2019-03-08T12:20:43.984Z,1.35
2019-03-08T12:23:18.507Z,1.60
2019-03-08T12:26:03.568Z,1.98
2019-03-08T12:28:34.763Z,1.60
2019-03-08T12:31:19.897Z,1.53
2019-03-08T12:33:51.236Z,1.65
2019-03-08T12:36:19.857Z,1.80
2019-03-08T12:38:54.127Z,1.52
2019-03-08T12:41:31.548Z,1.12
2019-03-08T12:44:16.517Z,1.57
2019-03-08T12:46:45.034Z,1.65
2019-03-08T12:49:13.458Z,1.32
2019-03-08T12:51:44.687Z,1.37
2019-03-08T12:54:13.158Z,1.42
2019-03-08T12:56:53.906Z,1.52
2019-03-08T12:59:22.351Z,1.70
2019-03-08T13:01:50.962Z,1.15
2019-03-08T13:04:22.042Z,1.70
2019-03-08T13:07:02.784Z,1.30
2019-03-08T13:09:31.340Z,1.70
2019-03-08T13:11:58.030Z,1.20
2019-03-08T13:14:24.676Z,1.40
2019-03-08T13:16:51.390Z,0.93
2019-03-08T13:19:17.999Z,1.37
2019-03-08T13:21:44.671Z,1.27
2019-03-08T13:24:11.624Z,1.55
2019-03-08T13:26:38.335Z,1.20
2019-03-08T13:29:05.045Z,1.20
2019-03-08T13:31:31.753Z,1.30
2019-03-08T13:33:58.371Z,1.50
2019-03-08T13:36:25.031Z,1.30
2019-03-08T13:38:51.701Z,1.12
2019-03-08T13:41:18.657Z,1.30
2019-03-08T13:43:45.399Z,1.45
2019-03-08T13:46:12.118Z,1.40
2019-03-08T13:48:38.707Z,1.82
2019-03-08T13:51:05.365Z,1.60
2019-03-08T13:53:32.059Z,1.30
2019-03-08T13:55:58.779Z,1.27
2019-03-08T13:58:25.917Z,1.30
2019-03-08T14:00:52.613Z,1.25
2019-03-08T14:03:19.198Z,1.65
2019-03-08T14:05:45.895Z,0.93
2019-03-08T14:08:13.567Z,1.40
2019-03-08T14:10:40.215Z,0.93
2019-03-08T14:13:07.018Z,0.98
2019-03-08T14:15:33.936Z,1.05
2019-03-08T14:18:00.551Z,0.90
2019-03-08T14:20:28.025Z,1.20
2019-03-08T14:22:54.680Z,0.85
2019-03-08T14:25:21.389Z,1.17
2019-03-08T14:27:48.100Z,1.32
2019-03-08T14:30:39.989Z,0.98
2019-03-08T14:33:06.583Z,1.67
2019-03-08T14:35:33.258Z,1.27
2019-03-08T14:37:59.936Z,1.20
2019-03-08T14:40:46.630Z,1.30
2019-03-08T14:43:16.983Z,1.42
2019-03-08T14:46:03.936Z,1.07
2019-03-08T14:48:30.531Z,1.30
2019-03-08T14:50:57.483Z,1.47
2019-03-08T14:53:24.173Z,1.30
2019-03-08T14:55:50.809Z,1.20
2019-03-08T14:58:17.436Z,1.25
2019-03-08T15:00:44.196Z,1.20
2019-03-08T15:03:10.787Z,1.10
2019-03-08T15:05:37.487Z,1.17
2019-03-08T15:08:04.151Z,1.07
2019-03-08T15:10:39.128Z,1.37
2019-03-08T15:12:59.326Z,1.40
2019-03-08T15:15:26.110Z,1.15
2019-03-08T15:17:53.647Z,1.10
2019-03-08T15:20:21.466Z,1.20
2019-03-08T15:22:48.453Z,0.88
2019-03-08T15:25:15.245Z,1.05
2019-03-08T15:27:41.925Z,0.90
2019-03-08T15:30:11.189Z,1.27
2019-03-08T15:32:37.895Z,1.20
2019-03-08T15:35:06.813Z,1.52
2019-03-08T15:37:33.656Z,1.40
2019-03-08T15:40:00.353Z,1.27
2019-03-08T15:42:27.045Z,2.12
2019-03-08T15:44:54.725Z,1.52
2019-03-08T15:47:23.818Z,1.20
2019-03-08T15:49:49.973Z,1.27
2019-03-08T15:52:16.946Z,1.50
2019-03-08T15:54:43.605Z,1.10
2019-03-08T15:57:10.231Z,1.15
2019-03-08T15:59:36.950Z,1.47
2019-03-08T16:02:06.241Z,1.98
2019-03-08T16:04:32.287Z,2.95
2019-03-08T16:06:58.959Z,2.67
2019-03-08T16:09:25.602Z,2.15
2019-03-08T16:11:52.248Z,2.00
2019-03-08T16:14:18.971Z,2.20
2019-03-08T16:16:45.693Z,2.75
2019-03-08T16:19:12.355Z,2.37
2019-03-08T16:21:39.091Z,1.80
2019-03-08T16:24:05.732Z,2.25
2019-03-08T16:26:32.363Z,2.20
2019-03-08T16:28:59.034Z,1.52
2019-03-08T16:31:33.234Z,1.57
2019-03-08T16:34:01.706Z,1.47
2019-03-08T16:36:39.635Z,1.62
2019-03-08T16:39:09.749Z,1.57
2019-03-08T16:41:46.238Z,1.72
2019-03-08T16:44:17.525Z,1.20
2019-03-08T16:46:51.912Z,1.00
2019-03-08T16:49:22.939Z,1.20
2019-03-08T16:51:57.433Z,1.20
2019-03-08T16:54:42.454Z,1.30
2019-03-08T16:57:19.873Z,2.20
2019-03-08T16:59:48.383Z,2.20
2019-03-08T17:02:19.784Z,2.30
2019-03-08T17:05:05.393Z,2.10
2019-03-08T17:07:36.681Z,1.52
2019-03-08T17:10:09.066Z,2.50
2019-03-08T17:12:43.389Z,1.47
2019-03-08T17:15:11.894Z,1.55
2019-03-08T17:17:40.461Z,1.30
2019-03-08T17:20:22.196Z,1.35
2019-03-08T17:22:53.406Z,1.50
2019-03-08T17:25:23.639Z,1.20
2019-03-08T17:27:52.315Z,1.67
2019-03-08T17:30:27.940Z,1.98
2019-03-08T17:33:13.128Z,1.70
2019-03-08T17:35:41.690Z,1.90
2019-03-08T17:38:13.131Z,1.85
2019-03-08T17:40:58.191Z,1.85
2019-03-08T17:43:27.750Z,2.77
2019-03-08T17:45:59.057Z,3.05
2019-03-08T17:48:36.356Z,3.27
2019-03-08T17:51:04.925Z,2.98
2019-03-08T17:53:39.510Z,3.45
2019-03-08T17:56:08.051Z,3.62
2019-03-08T17:58:51.545Z,4.30
2019-03-08T18:01:22.857Z,6.25
2019-03-08T18:03:57.373Z,5.12
2019-03-08T18:06:34.783Z,3.87
2019-03-08T18:09:06.064Z,3.15
2019-03-08T18:11:39.073Z,3.15
2019-03-08T18:14:07.568Z,3.50
2019-03-08T18:16:41.917Z,3.62
2019-03-08T18:19:16.453Z,4.47
2019-03-08T18:21:44.955Z,4.17
2019-03-08T18:24:23.544Z,3.92
2019-03-08T18:26:52.869Z,4.05
2019-03-08T18:29:21.398Z,5.17
2019-03-08T18:32:01.987Z,4.80
2019-03-08T18:34:39.569Z,4.90
2019-03-08T18:37:24.994Z,4.90
2019-03-08T18:39:59.352Z,5.70
2019-03-08T18:42:29.271Z,5.53
2019-03-08T18:45:03.397Z,6.83
2019-03-08T18:47:48.483Z,8.50
2019-03-08T18:50:17.030Z,9.70
2019-03-08T18:52:48.385Z,10.30
2019-03-08T18:55:26.971Z,15.20
2019-03-08T18:58:04.468Z,17.98
2019-03-08T19:00:38.759Z,13.83
2019-03-08T19:03:10.100Z,11.30
2019-03-08T19:05:41.734Z,3.98
2019-03-08T19:08:16.437Z,13.45
2019-03-08T19:10:44.966Z,14.35
2019-03-08T19:13:13.465Z,15.03
2019-03-08T19:15:57.060Z,13.03
2019-03-08T19:18:31.454Z,12.85
2019-03-08T19:21:05.711Z,16.17
2019-03-08T19:23:51.043Z,15.10
2019-03-08T19:26:19.755Z,13.60
2019-03-08T19:28:48.277Z,13.93
2019-03-08T19:31:19.785Z,13.60
2019-03-08T19:34:04.817Z,8.85
2019-03-08T19:36:39.191Z,12.85
2019-03-08T19:39:24.291Z,11.53
2019-03-08T19:42:07.884Z,12.70
2019-03-08T19:44:36.309Z,10.05
2019-03-08T19:47:10.657Z,10.50
2019-03-08T19:49:39.146Z,10.95
2019-03-08T19:52:19.393Z,10.60
2019-03-08T19:54:50.662Z,10.40
2019-03-08T19:57:21.875Z,10.08
2019-03-08T19:59:56.276Z,10.43
2019-03-08T20:02:27.584Z,10.10
2019-03-08T20:05:02.166Z,10.57
2019-03-08T20:07:36.608Z,10.65
2019-03-08T20:10:08.264Z,10.03
2019-03-08T20:12:36.771Z,10.45
2019-03-08T20:15:08.895Z,10.18
2019-03-08T20:17:49.313Z,10.38
2019-03-08T20:20:23.657Z,10.45
2019-03-08T20:22:55.256Z,9.95
2019-03-08T20:25:35.858Z,11.25
2019-03-08T20:28:07.101Z,10.35
2019-03-08T20:30:41.542Z,9.90
2019-03-08T20:33:26.852Z,10.18
2019-03-08T20:36:10.717Z,9.38
2019-03-08T20:38:48.694Z,10.53
2019-03-08T20:41:35.756Z,10.65
2019-03-08T20:44:20.850Z,10.15
2019-03-08T20:46:55.127Z,10.85
2019-03-08T20:49:21.822Z,10.58
2019-03-08T20:51:48.540Z,10.85
2019-03-08T20:54:15.268Z,10.53
2019-03-08T20:56:42.274Z,9.95
2019-03-08T20:59:08.935Z,10.40
2019-03-08T21:01:35.728Z,10.38
2019-03-08T21:04:02.424Z,10.98
2019-03-08T21:06:29.259Z,10.90
2019-03-08T21:08:57.353Z,10.68
2019-03-08T21:11:24.654Z,11.78
2019-03-08T21:13:52.119Z,11.80
2019-03-08T21:16:20.471Z,14.30
2019-03-08T21:18:47.285Z,16.82
2019-03-08T21:21:14.005Z,15.80
2019-03-08T21:23:40.785Z,13.50
2019-03-08T21:26:07.402Z,13.28
2019-03-08T21:28:34.183Z,14.85
2019-03-08T21:31:00.834Z,13.85
2019-03-08T21:33:27.552Z,15.25
2019-03-08T21:35:55.181Z,15.58
2019-03-08T21:38:22.031Z,13.55
2019-03-08T21:40:48.645Z,13.88
2019-03-08T21:43:15.303Z,14.45
2019-03-08T21:45:42.111Z,14.23
2019-03-08T21:48:08.747Z,15.15
2019-03-08T21:50:35.374Z,17.57
2019-03-08T21:53:02.063Z,17.87
2019-03-08T21:55:28.665Z,19.15
2019-03-08T21:57:55.312Z,20.02
2019-03-08T22:00:25.941Z,20.27
2019-03-08T22:02:52.581Z,21.33
2019-03-08T22:05:23.802Z,23.32
2019-03-08T22:07:50.533Z,23.83
2019-03-08T22:10:21.799Z,23.87
2019-03-08T22:12:48.506Z,24.13
2019-03-08T22:15:15.236Z,23.10
2019-03-08T22:17:41.859Z,22.17
2019-03-08T22:20:08.657Z,22.52
2019-03-08T22:22:35.341Z,23.22
2019-03-08T22:25:02.345Z,20.88
2019-03-08T22:27:29.044Z,21.73
2019-03-08T22:29:56.094Z,21.90
2019-03-08T22:32:22.705Z,21.05
2019-03-08T22:34:49.366Z,22.40
2019-03-08T22:37:17.131Z,20.55
2019-03-08T22:39:43.778Z,20.05
2019-03-08T22:42:10.521Z,20.30
2019-03-08T22:44:37.321Z,21.48
2019-03-08T22:47:03.970Z,21.48
2019-03-08T22:49:30.624Z,21.95
2019-03-08T22:51:57.357Z,20.77
2019-03-08T22:54:23.961Z,19.92
2019-03-08T22:56:50.616Z,20.43
2019-03-08T22:59:17.287Z,20.92
2019-03-08T23:01:47.034Z,20.85
2019-03-08T23:04:13.657Z,20.95
2019-03-08T23:06:40.381Z,20.57
2019-03-08T23:09:09.688Z,19.23
2019-03-08T23:11:38.136Z,19.10
2019-03-08T23:14:04.856Z,18.73
2019-03-08T23:16:31.499Z,18.67
2019-03-08T23:18:58.123Z,18.98
2019-03-08T23:21:25.895Z,18.10
2019-03-08T23:23:52.503Z,18.32
2019-03-08T23:26:19.224Z,18.92
2019-03-08T23:28:50.797Z,19.95
2019-03-08T23:31:31.400Z,19.65
2019-03-08T23:33:58.133Z,19.60
2019-03-08T23:36:24.853Z,18.15
2019-03-08T23:38:51.549Z,18.17
2019-03-08T23:41:18.657Z,20.20
2019-03-08T23:43:46.370Z,19.70
2019-03-08T23:46:13.076Z,18.40
2019-03-08T23:48:39.745Z,19.05
2019-03-08T23:51:06.441Z,18.17
2019-03-08T23:53:33.151Z,18.85
2019-03-08T23:55:59.879Z,18.40
2019-03-08T23:58:26.481Z,17.98
